createdAt,value
2023-04-22T00:00:04.471Z,85.31
2023-04-22T00:01:04.469Z,85.01
2023-04-22T00:02:04.546Z,84.64
2023-04-22T00:03:04.560Z,84.74
2023-04-22T00:04:04.742Z,84.95
2023-04-22T00:05:04.431Z,85.05
2023-04-22T00:06:04.381Z,85.25
2023-04-22T00:07:04.405Z,85.66
2023-04-22T00:08:04.367Z,85.91
2023-04-22T00:09:04.340Z,85.80
2023-04-22T00:10:04.349Z,85.97
2023-04-22T00:11:04.320Z,85.97
2023-04-22T00:12:04.329Z,85.77
2023-04-22T00:13:04.306Z,85.39
2023-04-22T00:14:04.295Z,85.77
2023-04-22T00:15:04.289Z,85.39
2023-04-22T00:16:04.306Z,85.91
2023-04-22T00:17:04.251Z,86.07
2023-04-22T00:18:04.265Z,86.07
2023-04-22T00:19:04.229Z,86.38
2023-04-22T00:20:04.221Z,86.28
2023-04-22T00:21:04.186Z,86.18
2023-04-22T00:22:04.172Z,86.07
2023-04-22T00:23:04.189Z,85.71
2023-04-22T00:24:04.161Z,85.50
2023-04-22T00:25:04.150Z,85.50
2023-04-22T00:26:04.125Z,85.60
2023-04-22T00:27:04.137Z,85.80
2023-04-22T00:28:04.108Z,85.80
2023-04-22T00:29:04.113Z,86.11
2023-04-22T00:30:04.073Z,86.05
2023-04-22T00:31:04.083Z,86.15
2023-04-22T00:32:04.053Z,86.36
2023-04-22T00:33:04.066Z,86.15
2023-04-22T00:34:04.016Z,86.15
2023-04-22T00:35:04.026Z,86.42
2023-04-22T00:36:04.005Z,86.22
2023-04-22T00:37:03.991Z,86.11
2023-04-22T00:38:03.988Z,85.91
2023-04-22T00:39:04.003Z,86.42
2023-04-22T00:40:03.957Z,86.22
2023-04-22T00:41:03.929Z,86.01
2023-04-22T00:42:03.919Z,85.95
2023-04-22T00:43:03.928Z,86.11
2023-04-22T00:44:03.921Z,86.11
2023-04-22T00:45:03.881Z,86.22
2023-04-22T00:46:03.888Z,86.11
2023-04-22T00:47:03.959Z,86.25
2023-04-22T00:48:03.933Z,86.15
2023-04-22T00:49:03.874Z,86.52
2023-04-22T00:50:03.831Z,86.42
2023-04-22T00:51:03.809Z,86.36
2023-04-22T00:52:03.805Z,86.15
2023-04-22T00:53:03.797Z,86.36
2023-04-22T00:54:03.786Z,86.15
2023-04-22T00:55:03.765Z,86.36
2023-04-22T00:56:03.720Z,86.46
2023-04-22T00:57:03.723Z,86.15
2023-04-22T00:58:03.723Z,86.15
2023-04-22T00:59:03.717Z,86.15
2023-04-22T01:00:03.691Z,86.57
2023-04-22T01:01:03.722Z,86.98
2023-04-22T01:02:03.707Z,87.24
2023-04-22T01:03:03.854Z,86.93
2023-04-22T01:04:03.716Z,86.42
2023-04-22T01:05:03.658Z,86.63
2023-04-22T01:06:03.608Z,86.66
2023-04-22T01:07:03.600Z,86.57
2023-04-22T01:08:03.606Z,86.36
2023-04-22T01:09:03.592Z,86.15
2023-04-22T01:10:03.593Z,86.25
2023-04-22T01:11:03.548Z,86.25
2023-04-22T01:12:03.534Z,86.05
2023-04-22T01:13:03.560Z,86.05
2023-04-22T01:14:03.525Z,85.95
2023-04-22T01:15:04.909Z,86.05
2023-04-22T01:16:03.475Z,86.25
2023-04-22T01:17:03.625Z,86.57
2023-04-22T01:18:03.527Z,86.66
2023-04-22T01:19:03.436Z,86.36
2023-04-22T01:20:03.431Z,86.66
2023-04-22T01:21:03.423Z,86.66
2023-04-22T01:22:03.407Z,86.87
2023-04-22T01:23:03.433Z,87.08
2023-04-22T01:24:03.386Z,87.08
2023-04-22T01:25:03.377Z,87.18
2023-04-22T01:26:03.365Z,87.18
2023-04-22T01:27:03.359Z,86.87
2023-04-22T01:28:03.340Z,86.87
2023-04-22T01:29:03.334Z,87.28
2023-04-22T01:30:03.308Z,87.49
2023-04-22T01:31:03.283Z,87.43
2023-04-22T01:32:03.328Z,87.53
2023-04-22T01:33:03.304Z,87.53
2023-04-22T01:34:03.259Z,87.73
2023-04-22T01:35:03.266Z,87.73
2023-04-22T01:36:03.222Z,87.84
2023-04-22T01:37:03.232Z,87.63
2023-04-22T01:38:03.218Z,87.22
2023-04-22T01:39:03.186Z,87.43
2023-04-22T01:40:03.196Z,87.22
2023-04-22T01:41:03.191Z,87.32
2023-04-22T01:42:03.181Z,87.46
2023-04-22T01:43:03.175Z,87.57
2023-04-22T01:44:03.145Z,87.77
2023-04-22T01:45:03.152Z,88.08
2023-04-22T01:46:03.134Z,88.08
2023-04-22T01:47:03.093Z,88.08
2023-04-22T01:48:03.131Z,88.08
2023-04-22T01:49:03.069Z,88.29
2023-04-22T01:50:03.049Z,88.49
2023-04-22T01:51:03.040Z,88.59
2023-04-22T01:52:03.029Z,88.49
2023-04-22T01:53:03.058Z,88.18
2023-04-22T01:54:03.017Z,88.18
2023-04-22T01:55:02.997Z,88.29
2023-04-22T01:56:02.976Z,88.08
2023-04-22T01:57:03.003Z,87.88
2023-04-22T01:58:02.944Z,87.98
2023-04-22T01:59:02.953Z,88.39
2023-04-22T02:00:02.947Z,88.18
2023-04-22T02:01:02.966Z,88.18
2023-04-22T02:02:02.954Z,88.39
2023-04-22T02:03:02.964Z,88.39
2023-04-22T02:04:02.922Z,88.18
2023-04-22T02:05:02.926Z,88.59
2023-04-22T02:06:02.860Z,88.80
2023-04-22T02:07:02.828Z,88.49
2023-04-22T02:08:02.841Z,88.70
2023-04-22T02:09:02.830Z,88.80
2023-04-22T02:10:02.812Z,88.39
2023-04-22T02:11:02.819Z,88.39
2023-04-22T02:12:02.807Z,88.59
2023-04-22T02:13:02.762Z,88.49
2023-04-22T02:14:02.756Z,88.49
2023-04-22T02:15:02.746Z,88.35
2023-04-22T02:16:02.808Z,88.14
2023-04-22T02:17:02.719Z,87.94
2023-04-22T02:18:02.682Z,87.73
2023-04-22T02:19:02.699Z,87.73
2023-04-22T02:20:02.737Z,87.63
2023-04-22T02:21:02.652Z,87.63
2023-04-22T02:22:02.651Z,87.63
2023-04-22T02:23:02.648Z,87.59
2023-04-22T02:24:02.617Z,87.59
2023-04-22T02:25:02.604Z,87.38
2023-04-22T02:26:02.586Z,87.38
2023-04-22T02:27:02.582Z,87.38
2023-04-22T02:28:02.598Z,87.18
2023-04-22T02:29:02.555Z,87.18
2023-04-22T02:30:02.598Z,86.93
2023-04-22T02:31:02.585Z,86.93
2023-04-22T02:32:02.498Z,87.04
2023-04-22T02:33:02.552Z,86.83
2023-04-22T02:34:02.499Z,86.42
2023-04-22T02:35:02.473Z,86.11
2023-04-22T02:36:02.479Z,85.60
2023-04-22T02:37:02.432Z,85.71
2023-04-22T02:38:02.464Z,85.80
2023-04-22T02:39:02.446Z,85.60
2023-04-22T02:40:02.403Z,85.64
2023-04-22T02:41:02.388Z,86.15
2023-04-22T02:42:09.382Z,85.85
2023-04-22T02:43:09.377Z,85.44
2023-04-22T02:44:02.359Z,86.05
2023-04-22T02:45:09.333Z,86.25
2023-04-22T02:46:02.322Z,86.36
2023-04-22T02:47:02.355Z,86.15
2023-04-22T02:48:09.346Z,86.25
2023-04-22T02:49:09.307Z,86.25
2023-04-22T02:50:02.269Z,86.25
2023-04-22T02:51:02.266Z,85.95
2023-04-22T02:52:02.248Z,86.15
2023-04-22T02:53:02.264Z,86.40
2023-04-22T02:54:02.244Z,86.91
2023-04-22T02:55:02.214Z,87.32
2023-04-22T02:56:02.210Z,87.73
2023-04-22T02:57:02.180Z,87.63
2023-04-22T02:58:02.196Z,87.73
2023-04-22T02:59:02.183Z,87.88
2023-04-22T03:00:02.188Z,88.08
2023-04-22T03:01:02.209Z,88.29
2023-04-22T03:02:05.134Z,88.59
2023-04-22T03:03:02.247Z,88.29
2023-04-22T03:04:02.357Z,88.18
2023-04-22T03:05:02.117Z,88.08
2023-04-22T03:06:02.089Z,88.39
2023-04-22T03:07:02.060Z,88.18
2023-04-22T03:08:02.055Z,88.02
2023-04-22T03:09:02.045Z,88.12
2023-04-22T03:10:02.019Z,88.33
2023-04-22T03:11:01.997Z,88.23
2023-04-22T03:12:01.998Z,88.43
2023-04-22T03:13:01.975Z,88.68
2023-04-22T03:14:01.978Z,88.57
2023-04-22T03:15:01.973Z,88.57
2023-04-22T03:16:02.024Z,88.47
2023-04-22T03:17:02.367Z,88.78
2023-04-22T03:18:01.980Z,88.98
2023-04-22T03:19:01.929Z,88.78
2023-04-22T03:20:01.903Z,88.89
2023-04-22T03:21:01.900Z,88.89
2023-04-22T03:22:01.882Z,88.78
2023-04-22T03:23:01.899Z,88.78
2023-04-22T03:24:01.877Z,88.92
2023-04-22T03:25:01.837Z,89.23
2023-04-22T03:26:01.823Z,89.03
2023-04-22T03:27:01.816Z,89.13
2023-04-22T03:28:01.791Z,89.34
2023-04-22T03:29:01.779Z,89.44
2023-04-22T03:30:01.787Z,89.44
2023-04-22T03:31:01.760Z,89.54
2023-04-22T03:32:01.820Z,89.54
2023-04-22T03:33:01.789Z,89.54
2023-04-22T03:34:01.752Z,89.54
2023-04-22T03:35:01.730Z,89.54
2023-04-22T03:36:01.700Z,89.64
2023-04-22T03:37:01.685Z,89.75
2023-04-22T03:38:01.666Z,89.95
2023-04-22T03:39:01.698Z,90.06
2023-04-22T03:40:01.673Z,90.09
2023-04-22T03:41:01.652Z,90.30
2023-04-22T03:42:01.626Z,90.41
2023-04-22T03:43:01.619Z,90.41
2023-04-22T03:44:02.018Z,90.41
2023-04-22T03:45:01.601Z,90.30
2023-04-22T03:46:01.616Z,90.00
2023-04-22T03:47:01.556Z,89.94
2023-04-22T03:48:01.630Z,90.30
2023-04-22T03:49:01.521Z,90.45
2023-04-22T04:02:53.048Z,90.90
2023-04-22T04:03:53.192Z,90.90
2023-04-22T04:04:53.096Z,90.80
2023-04-22T04:05:53.025Z,90.69
2023-04-22T04:06:52.826Z,90.90
2023-04-22T04:07:52.821Z,90.94
2023-04-22T04:08:52.794Z,90.94
2023-04-22T04:09:52.803Z,91.05
2023-04-22T04:10:52.775Z,91.05
2023-04-22T04:11:52.761Z,91.05
2023-04-22T04:12:52.763Z,91.15
2023-04-22T04:13:52.765Z,91.36
2023-04-22T04:14:52.725Z,91.66
2023-04-22T04:15:52.804Z,91.66
2023-04-22T04:16:52.700Z,91.60
2023-04-22T04:17:52.801Z,91.71
2023-04-22T04:18:52.665Z,91.81
2023-04-22T04:19:52.669Z,91.91
2023-04-22T04:20:52.652Z,91.81
2023-04-22T04:21:52.645Z,91.91
2023-04-22T04:22:52.628Z,92.08
2023-04-22T04:23:52.639Z,91.97
2023-04-22T04:24:52.594Z,91.87
2023-04-22T04:25:52.598Z,91.77
2023-04-22T04:26:52.544Z,91.66
2023-04-22T04:27:52.554Z,91.56
2023-04-22T04:28:52.557Z,91.66
2023-04-22T04:29:52.565Z,91.77
2023-04-22T04:30:52.543Z,91.77
2023-04-22T04:31:52.517Z,91.77
2023-04-22T04:32:52.500Z,91.62
2023-04-22T04:33:52.474Z,91.52
2023-04-22T04:34:52.469Z,91.42
2023-04-22T04:35:52.449Z,91.42
2023-04-22T04:36:52.417Z,91.31
2023-04-22T04:37:52.403Z,91.31
2023-04-22T04:38:55.056Z,91.21
2023-04-22T04:39:52.390Z,91.11
2023-04-22T04:40:52.355Z,91.11
2023-04-22T04:41:52.365Z,91.00
2023-04-22T04:42:52.326Z,91.06
2023-04-22T04:43:52.338Z,90.96
2023-04-22T04:44:52.337Z,91.06
2023-04-22T04:45:52.292Z,90.90
2023-04-22T04:46:52.291Z,90.59
2023-04-22T04:47:52.366Z,90.59
2023-04-22T04:48:52.270Z,90.80
2023-04-22T04:49:52.253Z,90.80
2023-04-22T04:50:52.233Z,90.69
2023-04-22T04:51:52.230Z,90.69
2023-04-22T04:52:52.979Z,90.69
2023-04-22T04:53:52.214Z,90.80
2023-04-22T04:54:52.185Z,91.00
2023-04-22T04:55:52.207Z,91.21
2023-04-22T04:56:52.157Z,91.17
2023-04-22T04:57:52.146Z,91.17
2023-04-22T04:58:52.126Z,91.17
2023-04-22T04:59:52.152Z,91.17
2023-04-22T05:00:52.096Z,91.17
2023-04-22T05:01:52.112Z,91.06
2023-04-22T05:02:52.231Z,91.13
2023-04-22T05:03:52.256Z,91.02
2023-04-22T05:04:52.119Z,91.02
2023-04-22T05:05:52.054Z,91.02
2023-04-22T05:06:52.122Z,91.13
2023-04-22T05:07:52.002Z,91.13
2023-04-22T05:08:52.018Z,91.08
2023-04-22T05:09:51.969Z,90.98
2023-04-22T05:10:51.999Z,90.78
2023-04-22T05:11:51.946Z,90.67
2023-04-22T05:12:51.938Z,90.67
2023-04-22T05:13:51.963Z,90.57
2023-04-22T05:14:51.971Z,90.36
2023-04-22T05:15:51.906Z,90.22
2023-04-22T05:16:52.046Z,90.22
2023-04-22T05:17:51.900Z,90.22
2023-04-22T05:18:51.870Z,90.12
2023-04-22T05:19:51.852Z,90.01
2023-04-22T05:20:51.840Z,89.91
2023-04-22T05:21:51.832Z,89.76
2023-04-22T05:22:51.801Z,89.66
2023-04-22T05:23:51.799Z,89.25
2023-04-22T05:24:51.779Z,89.04
2023-04-22T05:25:53.395Z,88.84
2023-04-22T05:26:51.770Z,88.84
2023-04-22T05:27:51.740Z,88.84
2023-04-22T05:28:51.749Z,88.84
2023-04-22T05:29:51.728Z,88.84
2023-04-22T05:30:51.721Z,88.90
2023-04-22T05:31:51.738Z,89.11
2023-04-22T05:32:51.732Z,89.01
2023-04-22T05:33:51.679Z,89.01
2023-04-22T05:34:51.680Z,89.01
2023-04-22T05:35:51.646Z,88.59
2023-04-22T05:36:51.642Z,88.45
2023-04-22T05:37:51.611Z,88.14
2023-04-22T05:38:51.617Z,88.14
2023-04-22T05:39:51.609Z,88.04
2023-04-22T05:40:51.612Z,88.14
2023-04-22T05:41:51.559Z,88.21
2023-04-22T05:42:51.562Z,88.10
2023-04-22T05:43:51.545Z,88.10
2023-04-22T05:44:51.524Z,87.59
2023-04-22T05:45:51.569Z,87.49
2023-04-22T05:46:51.506Z,87.49
2023-04-22T05:47:51.505Z,87.28
2023-04-22T05:48:51.510Z,86.93
2023-04-22T05:49:51.470Z,86.93
2023-04-22T05:50:51.464Z,87.14
2023-04-22T05:51:51.421Z,87.14
2023-04-22T05:52:51.417Z,87.10
2023-04-22T05:53:51.402Z,86.99
2023-04-22T05:54:51.405Z,86.79
2023-04-22T05:55:51.401Z,86.79
2023-04-22T05:56:51.360Z,86.48
2023-04-22T05:57:51.365Z,86.07
2023-04-22T05:58:51.356Z,86.24
2023-04-22T05:59:51.325Z,86.24
2023-04-22T06:00:51.331Z,86.14
2023-04-22T06:01:51.317Z,85.93
2023-04-22T06:02:51.397Z,85.99
2023-04-22T06:03:51.442Z,85.89
2023-04-22T06:04:51.493Z,85.38
2023-04-22T06:05:51.340Z,85.28
2023-04-22T06:06:51.234Z,85.38
2023-04-22T06:07:51.236Z,85.34
2023-04-22T06:08:51.230Z,85.03
2023-04-22T06:09:59.419Z,84.22
2023-04-22T06:10:52.200Z,83.60
2023-04-22T06:11:51.164Z,83.60
2023-04-22T06:12:51.173Z,83.46
2023-04-22T06:13:51.153Z,82.75
2023-04-22T06:14:51.140Z,82.54
2023-04-22T06:15:51.141Z,82.50
2023-04-22T06:16:51.096Z,83.01
2023-04-22T06:17:51.101Z,82.40
2023-04-22T06:18:51.076Z,82.36
2023-04-22T06:19:51.050Z,82.56
2023-04-22T06:20:51.054Z,82.46
2023-04-22T06:21:51.024Z,82.26
2023-04-22T06:22:51.027Z,81.74
2023-04-22T06:23:51.009Z,80.79
2023-04-22T06:24:51.020Z,80.07
2023-04-22T06:25:50.983Z,79.57
2023-04-22T06:26:50.961Z,79.25
2023-04-22T06:27:50.950Z,78.81
2023-04-22T06:28:50.950Z,78.61
2023-04-22T06:29:50.934Z,78.41
2023-04-22T06:30:51.017Z,78.27
2023-04-22T06:31:50.944Z,77.65
2023-04-22T06:32:50.916Z,77.34
2023-04-22T06:33:50.876Z,77.11
2023-04-22T06:34:50.877Z,77.00
2023-04-22T06:35:50.858Z,73.19
2023-04-22T06:36:50.878Z,73.30
2023-04-22T06:37:50.822Z,73.19
2023-04-22T06:38:50.811Z,73.26
2023-04-22T06:39:50.840Z,73.36
2023-04-22T06:40:50.794Z,73.02
2023-04-22T06:41:50.783Z,72.62
2023-04-22T06:42:50.754Z,72.31
2023-04-22T06:43:50.738Z,71.30
2023-04-22T06:44:50.762Z,71.36
2023-04-22T06:45:50.715Z,70.95
2023-04-22T06:46:50.785Z,71.16
2023-04-22T06:47:50.714Z,70.75
2023-04-22T06:48:50.701Z,70.01
2023-04-22T06:49:50.662Z,70.01
2023-04-22T06:50:50.670Z,69.09
2023-04-22T06:51:50.672Z,69.19
2023-04-22T06:52:50.626Z,68.24
2023-04-22T06:53:50.609Z,68.35
2023-04-22T06:54:50.615Z,68.55
2023-04-22T06:55:50.595Z,68.44
2023-04-22T06:56:50.612Z,68.11
2023-04-22T06:57:50.565Z,67.50
2023-04-22T06:58:50.568Z,68.21
2023-04-22T06:59:50.533Z,66.99
2023-04-22T07:00:50.538Z,67.19
2023-04-22T07:01:50.597Z,67.97
2023-04-22T07:02:50.616Z,67.77
2023-04-22T07:03:50.530Z,65.94
2023-04-22T07:04:50.480Z,66.15
2023-04-22T07:05:50.461Z,66.32
2023-04-22T07:06:50.489Z,66.42
2023-04-22T07:07:50.442Z,66.52
2023-04-22T07:08:50.448Z,66.69
2023-04-22T07:09:50.398Z,66.39
2023-04-22T07:10:50.392Z,65.27
2023-04-22T07:11:50.392Z,65.07
2023-04-22T07:12:50.408Z,65.24
2023-04-22T07:13:50.351Z,65.75
2023-04-22T07:14:50.562Z,65.55
2023-04-22T07:15:50.317Z,65.85
2023-04-22T07:16:50.438Z,65.92
2023-04-22T07:17:50.363Z,65.72
2023-04-22T07:18:50.301Z,65.92
2023-04-22T07:19:50.271Z,65.79
2023-04-22T07:20:50.273Z,65.89
2023-04-22T07:21:50.272Z,65.89
2023-04-22T07:22:50.271Z,65.08
2023-04-22T07:23:50.232Z,65.08
2023-04-22T07:24:50.201Z,64.64
2023-04-22T07:25:50.236Z,64.85
2023-04-22T07:26:50.206Z,64.64
2023-04-22T07:27:50.173Z,64.14
2023-04-22T07:28:50.188Z,64.85
2023-04-22T07:29:50.168Z,64.82
2023-04-22T07:30:50.123Z,64.61
2023-04-22T07:31:50.159Z,64.21
2023-04-22T07:32:50.149Z,63.81
2023-04-22T07:33:50.079Z,63.81
2023-04-22T07:34:50.074Z,63.90
2023-04-22T07:35:50.053Z,64.21
2023-04-22T07:36:50.055Z,62.08
2023-04-22T07:37:50.043Z,62.08
2023-04-22T07:38:50.029Z,61.68
2023-04-22T07:39:49.998Z,61.17
2023-04-22T07:40:49.988Z,60.16
2023-04-22T07:41:49.981Z,59.42
2023-04-22T07:42:49.994Z,59.72
2023-04-22T07:43:49.955Z,60.53
2023-04-22T07:44:49.970Z,60.94
2023-04-22T07:45:49.955Z,61.75
2023-04-22T07:46:49.916Z,62.05
2023-04-22T07:47:49.934Z,61.35
2023-04-22T07:48:49.889Z,58.92
2023-04-22T07:49:49.893Z,59.12
2023-04-22T07:50:49.894Z,59.72
2023-04-22T07:51:49.855Z,59.80
2023-04-22T07:52:49.860Z,59.80
2023-04-22T07:53:49.819Z,59.49
2023-04-22T07:54:49.809Z,58.89
2023-04-22T07:55:49.843Z,59.80
2023-04-22T07:56:49.794Z,61.41
2023-04-22T07:57:49.791Z,62.40
2023-04-22T07:58:49.753Z,61.90
2023-04-22T07:59:49.752Z,59.87
2023-04-22T08:00:49.752Z,59.67
2023-04-22T08:01:49.771Z,59.77
2023-04-22T08:02:49.804Z,59.77
2023-04-22T08:03:49.913Z,60.55
2023-04-22T08:04:49.811Z,60.25
2023-04-22T08:05:49.674Z,58.83
2023-04-22T08:06:49.660Z,58.83
2023-04-22T08:07:49.655Z,59.84
2023-04-22T08:08:49.636Z,58.63
2023-04-22T08:09:49.611Z,59.11
2023-04-22T08:10:49.602Z,60.12
2023-04-22T08:11:49.589Z,60.22
2023-04-22T08:12:49.597Z,60.12
2023-04-22T08:13:49.544Z,60.42
2023-04-22T08:14:49.544Z,60.12
2023-04-22T08:15:49.573Z,59.18
2023-04-22T08:16:49.524Z,59.08
2023-04-22T08:17:49.538Z,59.08
2023-04-22T08:18:49.489Z,59.28
2023-04-22T08:19:49.510Z,58.98
2023-04-22T08:20:49.538Z,59.28
2023-04-22T08:21:49.447Z,57.56
2023-04-22T08:22:49.459Z,56.65
2023-04-22T08:23:49.420Z,57.03
2023-04-22T08:24:49.416Z,57.34
2023-04-22T08:25:49.418Z,57.84
2023-04-22T08:26:49.400Z,57.14
2023-04-22T08:27:49.391Z,55.82
2023-04-22T08:28:49.381Z,56.40
2023-04-22T08:29:49.372Z,56.50
2023-04-22T08:30:49.343Z,56.50
2023-04-22T08:31:49.344Z,58.12
2023-04-22T08:32:49.406Z,59.22
2023-04-22T08:33:49.298Z,58.89
2023-04-22T08:34:51.888Z,57.18
2023-04-22T08:35:49.265Z,56.27
2023-04-22T08:36:49.266Z,55.97
2023-04-22T08:37:49.267Z,55.77
2023-04-22T08:38:50.189Z,56.04
2023-04-22T08:39:49.214Z,56.55
2023-04-22T08:40:49.205Z,56.45
2023-04-22T08:41:49.189Z,55.64
2023-04-22T08:42:49.197Z,55.74
2023-04-22T08:43:49.196Z,55.91
2023-04-22T08:44:49.144Z,56.12
2023-04-22T08:45:49.128Z,56.62
2023-04-22T08:46:49.216Z,54.30
2023-04-22T08:47:49.131Z,54.41
2023-04-22T08:48:49.116Z,53.20
2023-04-22T08:49:49.081Z,53.09
2023-04-22T08:50:49.135Z,53.12
2023-04-22T08:51:49.056Z,53.83
2023-04-22T08:52:49.087Z,53.90
2023-04-22T08:53:49.017Z,53.40
2023-04-22T08:54:49.026Z,53.09
2023-04-22T08:55:49.017Z,54.10
2023-04-22T08:56:49.001Z,54.18
2023-04-22T08:57:48.983Z,55.08
2023-04-22T08:58:48.988Z,55.06
2023-04-22T08:59:48.961Z,54.75
2023-04-22T09:00:48.932Z,54.43
2023-04-22T09:01:48.994Z,54.63
2023-04-22T09:02:48.996Z,54.63
2023-04-22T09:03:48.972Z,55.51
2023-04-22T09:04:48.899Z,54.71
2023-04-22T09:05:48.876Z,54.48
2023-04-22T09:06:48.864Z,54.48
2023-04-22T09:07:48.871Z,53.88
2023-04-22T09:08:48.847Z,52.04
2023-04-22T09:09:48.833Z,51.34
2023-04-22T09:10:48.803Z,50.01
2023-04-22T09:11:48.797Z,50.21
2023-04-22T09:12:48.809Z,49.71
2023-04-22T09:13:48.776Z,50.61
2023-04-22T09:14:48.767Z,52.72
2023-04-22T09:15:48.740Z,51.19
2023-04-22T09:16:48.814Z,51.59
2023-04-22T09:17:48.787Z,52.07
2023-04-22T09:18:48.716Z,51.37
2023-04-22T09:19:48.702Z,49.46
2023-04-22T09:20:48.688Z,48.78
2023-04-22T09:21:50.354Z,49.78
2023-04-22T09:22:48.653Z,49.38
2023-04-22T09:23:48.663Z,49.16
2023-04-22T09:24:48.635Z,50.16
2023-04-22T09:25:48.602Z,49.63
2023-04-22T09:26:48.610Z,49.43
2023-04-22T09:27:49.643Z,49.04
2023-04-22T09:28:48.593Z,49.51
2023-04-22T09:29:48.567Z,49.51
2023-04-22T09:30:48.586Z,51.39
2023-04-22T09:31:48.593Z,50.59
2023-04-22T09:32:48.547Z,49.37
2023-04-22T09:33:50.166Z,49.46
2023-04-22T09:34:48.508Z,49.54
2023-04-22T09:35:48.479Z,49.74
2023-04-22T09:36:48.477Z,47.94
2023-04-22T09:37:49.550Z,48.94
2023-04-22T09:38:48.488Z,49.02
2023-04-22T09:39:49.679Z,49.22
2023-04-22T09:40:48.419Z,47.92
2023-04-22T09:41:48.412Z,48.52
2023-04-22T09:42:48.386Z,47.89
2023-04-22T09:43:48.387Z,48.52
2023-04-22T09:44:48.353Z,48.11
2023-04-22T09:45:48.379Z,47.44
2023-04-22T09:46:48.349Z,48.34
2023-04-22T10:02:45.259Z,47.94
2023-04-22T10:03:45.203Z,48.54
2023-04-22T10:04:45.160Z,47.81
2023-04-22T10:05:45.145Z,46.72
2023-04-22T10:06:45.135Z,46.62
2023-04-22T10:07:45.151Z,46.81
2023-04-22T10:08:45.106Z,45.29
2023-04-22T10:09:45.096Z,44.79
2023-04-22T10:10:45.117Z,46.09
2023-04-22T10:11:45.068Z,47.19
2023-04-22T10:12:45.042Z,47.37
2023-04-22T10:13:45.062Z,47.97
2023-04-22T10:14:53.562Z,47.57
2023-04-22T10:15:45.021Z,48.35
2023-04-22T10:16:45.031Z,48.05
2023-04-22T10:17:45.008Z,43.85
2023-04-22T10:18:44.985Z,43.67
2023-04-22T10:19:44.979Z,45.37
2023-04-22T10:20:44.973Z,44.67
2023-04-22T10:21:44.935Z,42.87
2023-04-22T10:22:44.939Z,43.29
2023-04-22T10:23:44.925Z,44.47
2023-04-22T10:24:44.899Z,44.17
2023-04-22T10:25:44.899Z,44.15
2023-04-22T10:26:44.913Z,45.35
2023-04-22T10:27:44.880Z,42.55
2023-04-22T10:28:44.861Z,43.45
2023-04-22T10:29:44.847Z,45.13
2023-04-22T10:30:44.899Z,45.73
2023-04-22T10:31:44.828Z,45.51
2023-04-22T10:32:44.873Z,45.51
2023-04-22T10:33:44.811Z,44.09
2023-04-22T10:34:44.754Z,42.49
2023-04-22T10:35:44.769Z,42.02
2023-04-22T10:36:44.754Z,42.91
2023-04-22T10:37:44.744Z,44.51
2023-04-22T10:38:44.740Z,43.49
2023-04-22T10:39:44.702Z,40.59
2023-04-22T10:40:44.716Z,39.40
2023-04-22T10:41:44.682Z,39.20
2023-04-22T10:42:44.667Z,37.90
2023-04-22T10:43:44.689Z,39.70
2023-04-22T10:44:44.652Z,41.00
2023-04-22T10:45:44.647Z,39.50
2023-04-22T10:46:44.672Z,41.17
2023-04-22T10:47:44.652Z,41.06
2023-04-22T10:48:44.578Z,42.15
2023-04-22T10:49:44.590Z,41.36
2023-04-22T10:50:44.573Z,41.93
2023-04-22T10:51:44.540Z,40.86
2023-04-22T10:52:44.532Z,39.48
2023-04-22T10:53:44.540Z,41.38
2023-04-22T10:54:44.524Z,39.96
2023-04-22T10:55:44.506Z,39.48
2023-04-22T10:56:51.915Z,39.70
2023-04-22T10:57:45.473Z,42.10
2023-04-22T10:58:44.445Z,43.09
2023-04-22T10:59:44.458Z,43.87
2023-04-22T11:00:53.299Z,39.78
2023-04-22T11:01:45.449Z,39.38
2023-04-22T11:02:44.493Z,40.18
2023-04-22T11:03:44.458Z,39.58
2023-04-22T11:04:44.391Z,39.48
2023-04-22T11:05:44.366Z,40.80
2023-04-22T11:06:44.347Z,40.20
2023-04-22T11:07:44.341Z,40.52
2023-04-22T11:08:44.318Z,40.94
2023-04-22T11:09:44.344Z,41.74
2023-04-22T11:10:44.812Z,41.44
2023-04-22T11:11:44.286Z,39.94
2023-04-22T11:12:44.268Z,39.56
2023-04-22T11:13:44.263Z,41.46
2023-04-22T11:14:44.290Z,39.94
2023-04-22T11:15:44.238Z,40.94
2023-04-22T11:16:44.326Z,38.72
2023-04-22T11:17:44.282Z,40.30
2023-04-22T11:18:44.182Z,40.08
2023-04-22T11:19:44.190Z,41.25
2023-04-22T11:20:44.187Z,39.94
2023-04-22T11:21:44.141Z,38.03
2023-04-22T11:22:44.211Z,38.41
2023-04-22T11:23:44.100Z,38.69
2023-04-22T11:24:44.125Z,37.00
2023-04-22T11:25:44.089Z,38.67
2023-04-22T11:26:44.086Z,38.75
2023-04-22T11:27:44.087Z,35.89
2023-04-22T11:28:44.059Z,36.68
2023-04-22T11:29:44.056Z,39.47
2023-04-22T11:30:44.056Z,37.66
2023-04-22T11:31:44.060Z,38.95
2023-04-22T11:32:44.028Z,37.56
2023-04-22T11:33:43.990Z,35.87
2023-04-22T11:34:43.985Z,38.54
2023-04-22T11:35:43.990Z,36.85
2023-04-22T11:36:43.971Z,39.51
2023-04-22T11:37:43.941Z,39.11
2023-04-22T11:38:43.924Z,37.23
2023-04-22T11:40:01.632Z,38.32
2023-04-22T11:40:46.556Z,37.41
2023-04-22T11:41:43.878Z,38.00
2023-04-22T11:42:43.872Z,34.15
2023-04-22T11:43:43.870Z,34.66
2023-04-22T11:44:43.849Z,35.74
2023-04-22T11:45:43.887Z,36.53
2023-04-22T11:46:43.848Z,35.62
2023-04-22T11:47:43.848Z,33.54
2023-04-22T11:48:43.807Z,34.94
2023-04-22T11:49:43.781Z,36.81
2023-04-22T11:50:43.817Z,35.92
2023-04-22T11:51:43.766Z,37.70
2023-04-22T11:52:43.742Z,37.79
2023-04-22T11:53:43.731Z,36.79
2023-04-22T11:54:43.732Z,37.59
2023-04-22T11:55:43.716Z,39.06
2023-04-22T11:56:43.730Z,37.45
2023-04-22T11:57:43.667Z,34.69
2023-04-22T11:58:43.673Z,34.69
2023-04-22T11:59:43.666Z,33.50
2023-04-22T12:00:43.664Z,33.62
2023-04-22T12:01:43.615Z,34.31
2023-04-22T12:02:43.701Z,34.71
2023-04-22T12:03:43.768Z,35.09
2023-04-22T12:04:43.583Z,33.80
2023-04-22T12:05:43.591Z,34.99
2023-04-22T12:06:43.558Z,35.69
2023-04-22T12:07:43.542Z,33.69
2023-04-22T12:08:43.534Z,34.68
2023-04-22T12:09:43.516Z,33.39
2023-04-22T12:10:43.547Z,35.77
2023-04-22T12:11:43.530Z,34.78
2023-04-22T12:12:43.490Z,34.46
2023-04-22T12:13:43.492Z,32.89
2023-04-22T12:14:43.469Z,34.97
2023-04-22T12:15:43.495Z,32.81
2023-04-22T12:16:43.533Z,34.91
2023-04-22T12:17:43.414Z,35.58
2023-04-22T12:18:43.424Z,38.05
2023-04-22T12:19:43.408Z,33.78
2023-04-22T12:20:43.368Z,33.09
2023-04-22T12:21:43.366Z,32.91
2023-04-22T12:22:43.356Z,33.82
2023-04-22T12:23:43.345Z,34.80
2023-04-22T12:24:43.322Z,34.10
2023-04-22T12:25:43.320Z,34.38
2023-04-22T12:26:43.307Z,37.83
2023-04-22T12:27:43.277Z,37.12
2023-04-22T12:28:43.288Z,37.77
2023-04-22T12:29:43.269Z,35.98
2023-04-22T12:30:43.238Z,37.94
2023-04-22T12:31:43.237Z,36.63
2023-04-22T12:32:43.224Z,33.18
2023-04-22T12:33:43.243Z,32.31
2023-04-22T12:34:43.197Z,33.21
2023-04-22T12:35:43.182Z,33.23
2023-04-22T12:36:43.185Z,34.92
2023-04-22T12:37:43.180Z,34.63
2023-04-22T12:38:43.161Z,33.70
2023-04-22T12:39:43.140Z,35.60
2023-04-22T12:40:43.138Z,34.99
2023-04-22T12:41:43.111Z,37.26
2023-04-22T12:42:43.112Z,35.34
2023-04-22T12:43:43.095Z,37.40
2023-04-22T12:44:43.063Z,36.97
2023-04-22T12:45:43.056Z,37.94
2023-04-22T12:46:43.075Z,36.91
2023-04-22T12:47:43.062Z,36.60
2023-04-22T12:48:43.071Z,36.48
2023-04-22T12:49:44.918Z,31.07
2023-04-22T12:50:43.003Z,34.63
2023-04-22T12:51:42.985Z,34.13
2023-04-22T12:52:42.980Z,31.78
2023-04-22T12:53:42.979Z,32.29
2023-04-22T12:54:43.086Z,33.67
2023-04-22T12:55:45.384Z,33.85
2023-04-22T12:56:42.945Z,32.19
2023-04-22T12:57:42.914Z,33.49
2023-04-22T12:58:42.897Z,34.36
2023-04-22T12:59:42.888Z,36.54
2023-04-22T13:00:42.881Z,34.36
2023-04-22T13:01:42.939Z,35.63
2023-04-22T13:02:42.954Z,35.33
2023-04-22T13:03:42.985Z,34.84
2023-04-22T13:04:42.878Z,33.58
2023-04-22T13:05:42.808Z,32.39
2023-04-22T13:06:44.229Z,36.75
2023-04-22T13:07:42.988Z,32.70
2023-04-22T13:08:42.780Z,34.78
2023-04-22T13:09:42.734Z,34.18
2023-04-22T13:10:50.756Z,32.53
2023-04-22T13:11:42.783Z,34.81
2023-04-22T13:12:42.718Z,32.17
2023-04-22T13:13:49.707Z,33.37
2023-04-22T13:14:42.691Z,33.01
2023-04-22T13:15:42.663Z,33.92
2023-04-22T13:16:42.703Z,34.30
2023-04-22T13:17:43.792Z,33.39
2023-04-22T13:18:42.639Z,33.47
2023-04-22T13:19:42.645Z,33.85